createdAt,value
2022-12-19T00:02:00.317Z,54.13
2022-12-19T00:04:28.732Z,58.70
2022-12-19T00:06:59.247Z,69.53
2022-12-19T00:09:27.773Z,74.97
2022-12-19T00:11:56.060Z,78.60
2022-12-19T00:14:25.754Z,56.73
2022-12-19T00:16:54.998Z,73.77
2022-12-19T00:19:23.466Z,68.80
2022-12-19T00:21:51.853Z,68.00
2022-12-19T00:24:21.381Z,75.67
2022-12-19T00:26:50.317Z,66.37
2022-12-19T00:29:18.945Z,61.63
2022-12-19T00:31:48.834Z,61.43
2022-12-19T00:34:17.549Z,54.27
2022-12-19T00:36:45.902Z,36.03
2022-12-19T00:39:14.247Z,66.07
2022-12-19T00:41:42.784Z,64.30
2022-12-19T00:44:13.000Z,78.13
2022-12-19T00:46:42.313Z,79.03
2022-12-19T00:49:12.074Z,66.30
2022-12-19T00:51:40.335Z,72.60
2022-12-19T00:54:08.614Z,62.40
2022-12-19T00:56:38.332Z,66.67
2022-12-19T00:59:07.146Z,83.13
2022-12-19T01:01:37.241Z,62.90
2022-12-19T01:07:00.405Z,70.53
2022-12-19T01:09:30.579Z,67.10
2022-12-19T01:12:16.403Z,71.27
2022-12-19T01:14:44.735Z,56.33
2022-12-19T01:17:13.294Z,88.93
2022-12-19T01:19:44.312Z,77.50
2022-12-19T01:22:14.229Z,65.90
2022-12-19T01:24:42.902Z,71.53
2022-12-19T01:27:11.289Z,52.83
2022-12-19T01:29:51.984Z,74.57
2022-12-19T01:32:20.928Z,57.93
2022-12-19T01:34:49.325Z,53.63
2022-12-19T01:37:19.304Z,54.03
2022-12-19T01:39:47.660Z,55.33
2022-12-19T01:42:23.023Z,64.90
2022-12-19T01:45:06.222Z,51.20
2022-12-19T01:47:35.344Z,72.27
2022-12-19T01:50:04.316Z,54.97
2022-12-19T01:52:34.619Z,56.17
2022-12-19T01:55:03.075Z,40.73
2022-12-19T01:57:31.411Z,51.77
2022-12-19T02:00:04.700Z,56.30
2022-12-19T02:02:34.426Z,69.20
2022-12-19T02:05:03.034Z,59.87
2022-12-19T02:07:31.439Z,64.40
2022-12-19T02:10:01.294Z,67.13
2022-12-19T02:12:32.480Z,59.50
2022-12-19T02:15:03.231Z,57.90
2022-12-19T02:17:36.454Z,60.83
2022-12-19T02:20:14.659Z,80.90
2022-12-19T02:22:48.796Z,59.47
2022-12-19T02:25:35.210Z,65.47
2022-12-19T02:28:14.284Z,56.37
2022-12-19T02:30:48.228Z,68.13
2022-12-19T02:33:19.739Z,68.87
2022-12-19T02:35:53.269Z,41.70
2022-12-19T02:38:24.431Z,56.90
2022-12-19T02:40:56.682Z,70.37
2022-12-19T02:43:25.696Z,53.10
2022-12-19T02:45:55.595Z,66.57
2022-12-19T02:48:24.220Z,59.20
2022-12-19T02:50:52.575Z,51.50
2022-12-19T02:53:22.431Z,52.83
2022-12-19T02:56:00.720Z,55.50
2022-12-19T02:58:49.068Z,59.13
2022-12-19T03:01:25.327Z,63.60
2022-12-19T03:03:58.455Z,52.97
2022-12-19T03:06:28.036Z,63.90
2022-12-19T03:09:00.722Z,50.97
2022-12-19T03:11:31.269Z,54.43
2022-12-19T03:14:00.998Z,58.23
2022-12-19T03:16:30.990Z,53.27
2022-12-19T03:18:59.719Z,46.80
2022-12-19T03:21:31.155Z,60.37
2022-12-19T03:23:59.532Z,56.50
2022-12-19T03:26:30.651Z,53.40
2022-12-19T03:29:00.779Z,46.60
2022-12-19T03:31:30.924Z,55.53
2022-12-19T03:34:01.868Z,57.30
2022-12-19T03:36:32.647Z,59.83
2022-12-19T03:39:01.899Z,48.13
2022-12-19T03:41:48.372Z,56.57
2022-12-19T03:44:17.543Z,60.10
2022-12-19T03:46:48.976Z,51.10
2022-12-19T03:49:18.694Z,44.87
2022-12-19T03:51:51.087Z,54.40
2022-12-19T03:54:25.301Z,42.90
2022-12-19T03:56:58.187Z,54.27
2022-12-19T03:59:32.012Z,54.67
2022-12-19T04:02:00.995Z,59.50
2022-12-19T04:04:31.500Z,49.93
2022-12-19T04:07:00.616Z,42.73
2022-12-19T04:09:29.073Z,44.63
2022-12-19T04:12:00.717Z,50.13
2022-12-19T04:14:30.445Z,39.63
2022-12-19T04:17:03.675Z,49.27
2022-12-19T04:19:39.793Z,48.00
2022-12-19T04:22:13.991Z,38.63
2022-12-19T04:24:43.115Z,42.00
2022-12-19T04:27:12.701Z,36.27
2022-12-19T04:29:41.194Z,38.13
2022-12-19T04:32:10.483Z,33.57
2022-12-19T04:34:42.970Z,30.03
2022-12-19T04:37:12.560Z,39.97
2022-12-19T04:39:41.159Z,38.77
2022-12-19T04:42:09.689Z,30.80
2022-12-19T04:44:37.990Z,37.13
2022-12-19T04:47:06.431Z,26.37
2022-12-19T04:49:34.768Z,37.97
2022-12-19T04:52:04.490Z,31.37
2022-12-19T04:54:34.018Z,28.83
2022-12-19T04:57:02.302Z,26.30
2022-12-19T04:59:31.444Z,34.47
2022-12-19T05:01:59.892Z,35.60
2022-12-19T05:04:28.789Z,29.23
2022-12-19T05:06:57.578Z,35.10
2022-12-19T05:09:28.386Z,33.83
2022-12-19T05:11:56.643Z,25.80
2022-12-19T05:14:25.194Z,38.87
2022-12-19T05:16:58.905Z,41.80
2022-12-19T05:19:29.646Z,24.33
2022-12-19T05:21:57.924Z,33.43
2022-12-19T05:24:27.631Z,37.93
2022-12-19T05:26:56.023Z,32.90
2022-12-19T05:29:24.483Z,28.40
2022-12-19T05:31:52.866Z,24.47
2022-12-19T05:34:21.231Z,41.53
2022-12-19T05:36:49.600Z,38.03
2022-12-19T05:39:18.780Z,33.30
2022-12-19T05:41:49.272Z,36.07
2022-12-19T05:44:18.040Z,39.17
2022-12-19T05:46:46.478Z,38.73
2022-12-19T05:49:14.854Z,33.33
2022-12-19T05:51:43.126Z,34.37
2022-12-19T05:54:11.421Z,32.27
2022-12-19T05:56:39.751Z,26.93
2022-12-19T05:59:09.423Z,36.40
2022-12-19T06:01:37.854Z,35.90
2022-12-19T06:04:07.793Z,28.73
2022-12-19T06:06:36.164Z,37.33
2022-12-19T06:09:04.492Z,34.10
2022-12-19T06:11:32.838Z,36.37
2022-12-19T06:14:01.180Z,30.53
2022-12-19T06:16:30.941Z,35.83
2022-12-19T06:18:59.327Z,32.47
2022-12-19T06:21:27.876Z,39.80
2022-12-19T06:23:56.621Z,36.23
2022-12-19T06:26:25.252Z,16.37
2022-12-19T06:28:54.416Z,33.70
2022-12-19T06:31:24.710Z,35.10
2022-12-19T06:33:54.584Z,39.17
2022-12-19T06:36:23.811Z,35.80
2022-12-19T06:38:52.723Z,27.10
2022-12-19T06:41:39.096Z,31.33
2022-12-19T06:44:08.584Z,30.23
2022-12-19T06:46:37.981Z,33.43
2022-12-19T06:49:07.832Z,34.53
2022-12-19T06:51:36.542Z,30.23
2022-12-19T06:54:04.934Z,36.00
2022-12-19T06:56:35.908Z,18.10
2022-12-19T06:59:04.357Z,31.47
2022-12-19T07:01:44.029Z,26.50
2022-12-19T07:04:16.539Z,31.17
2022-12-19T07:06:49.045Z,24.50
2022-12-19T07:09:18.285Z,35.90
2022-12-19T07:11:46.566Z,26.40
2022-12-19T07:14:14.876Z,34.23
2022-12-19T07:16:43.608Z,15.83
2022-12-19T07:19:11.962Z,29.43
2022-12-19T07:21:41.729Z,27.13
2022-12-19T07:24:11.163Z,30.00
2022-12-19T07:26:39.624Z,29.97
2022-12-19T07:29:08.344Z,29.37
2022-12-19T07:31:36.903Z,27.63
2022-12-19T07:34:05.264Z,22.63
2022-12-19T07:36:33.652Z,27.13
2022-12-19T07:39:03.889Z,25.83
2022-12-19T07:41:32.219Z,17.27
2022-12-19T07:44:01.004Z,22.67
2022-12-19T07:46:30.789Z,28.13
2022-12-19T07:48:59.293Z,28.37
2022-12-19T07:51:28.252Z,24.13
2022-12-19T07:53:56.621Z,26.17
2022-12-19T07:56:26.508Z,18.43
2022-12-19T07:58:55.390Z,21.43
2022-12-19T08:01:24.021Z,23.93
2022-12-19T08:03:56.560Z,20.97
2022-12-19T08:06:24.974Z,19.77
2022-12-19T08:08:53.330Z,19.27
2022-12-19T08:11:27.233Z,22.60
2022-12-19T08:13:57.088Z,12.30
2022-12-19T08:16:26.732Z,20.90
2022-12-19T08:18:56.126Z,20.47
2022-12-19T08:21:24.729Z,21.93
2022-12-19T08:23:53.926Z,18.50
2022-12-19T08:26:25.480Z,19.77
2022-12-19T08:28:54.259Z,15.97
2022-12-19T08:31:25.516Z,17.70
2022-12-19T08:33:54.917Z,16.13
2022-12-19T08:36:23.540Z,17.40
2022-12-19T08:38:51.932Z,16.00
2022-12-19T08:41:20.241Z,13.50
2022-12-19T08:43:50.256Z,17.80
2022-12-19T08:46:18.984Z,17.50
2022-12-19T08:48:49.008Z,15.53
2022-12-19T08:51:17.702Z,17.07
2022-12-19T08:53:46.722Z,8.43
2022-12-19T08:56:15.982Z,13.00
2022-12-19T08:58:44.427Z,15.70
2022-12-19T09:01:15.315Z,15.87
2022-12-19T09:04:02.698Z,15.77
2022-12-19T09:06:34.897Z,13.10
2022-12-19T09:09:04.414Z,17.37
2022-12-19T09:11:32.859Z,12.73
2022-12-19T09:14:05.113Z,15.90
2022-12-19T09:16:33.518Z,16.33
2022-12-19T09:19:01.904Z,13.53
2022-12-19T09:21:30.808Z,13.10
2022-12-19T09:24:07.686Z,13.27
2022-12-19T09:26:38.111Z,15.07
2022-12-19T09:29:11.052Z,14.83
2022-12-19T09:31:51.816Z,12.07
2022-12-19T09:34:38.074Z,14.07
2022-12-19T09:37:07.612Z,13.07
2022-12-19T09:39:37.449Z,9.67
2022-12-19T09:42:16.965Z,11.70
2022-12-19T09:44:52.775Z,12.80
2022-12-19T09:47:24.330Z,12.57
2022-12-19T09:49:54.079Z,10.67
2022-12-19T09:52:25.944Z,12.30
2022-12-19T09:54:59.480Z,9.60
2022-12-19T09:57:43.127Z,11.70
2022-12-19T10:00:14.134Z,8.33
2022-12-19T10:02:44.641Z,13.17
2022-12-19T10:05:30.535Z,11.30
2022-12-19T10:08:09.586Z,10.93
2022-12-19T10:12:41.394Z,9.93
2022-12-19T10:13:37.786Z,11.50
2022-12-19T10:16:09.572Z,8.80
2022-12-19T10:18:41.783Z,12.13
2022-12-19T10:21:11.304Z,10.53
2022-12-19T10:23:50.417Z,8.93
2022-12-19T10:26:21.772Z,11.80
2022-12-19T10:29:00.800Z,9.20
2022-12-19T10:31:33.395Z,12.13
2022-12-19T10:34:04.269Z,11.50
2022-12-19T10:37:04.292Z,9.23
2022-12-19T10:39:28.064Z,10.13
2022-12-19T10:42:02.630Z,11.17
2022-12-19T10:44:32.462Z,11.53
2022-12-19T10:47:01.042Z,10.77
2022-12-19T10:49:32.971Z,10.90
2022-12-19T10:52:02.024Z,9.37
2022-12-19T10:54:39.535Z,6.67
2022-12-19T10:57:25.389Z,8.33
2022-12-19T10:59:57.922Z,8.50
2022-12-19T11:02:31.845Z,8.87
2022-12-19T11:05:00.954Z,8.30
2022-12-19T11:07:29.443Z,7.97
2022-12-19T11:10:06.530Z,9.57
2022-12-19T11:17:39.810Z,8.43
2022-12-19T11:19:38.234Z,5.60
2022-12-19T11:27:15.037Z,7.03
2022-12-19T11:29:41.548Z,8.27
2022-12-19T11:29:41.659Z,6.80
2022-12-19T11:30:36.277Z,9.30
2022-12-19T11:33:15.715Z,8.67
2022-12-19T11:35:49.054Z,8.37
2022-12-19T11:38:21.348Z,7.47
2022-12-19T11:40:52.300Z,9.60
2022-12-19T11:43:45.132Z,7.23
2022-12-19T11:46:22.251Z,7.63
2022-12-19T11:48:53.644Z,5.03
2022-12-19T11:51:25.941Z,8.20
2022-12-19T11:54:02.439Z,9.10
2022-12-19T11:56:31.416Z,8.90
2022-12-19T11:59:01.843Z,7.73
2022-12-19T12:01:43.484Z,7.37
2022-12-19T12:04:28.754Z,8.03
2022-12-19T12:06:59.233Z,7.67
2022-12-19T12:15:34.570Z,6.30
2022-12-19T12:17:33.204Z,8.83
2022-12-19T12:25:51.102Z,8.00
2022-12-19T12:31:08.902Z,7.60
2022-12-19T12:31:10.257Z,8.90
2022-12-19T12:31:53.908Z,10.13
2022-12-19T12:32:03.005Z,9.70
2022-12-19T12:35:19.125Z,8.53
2022-12-19T12:35:32.680Z,9.20
2022-12-19T12:38:35.114Z,9.77
2022-12-19T12:41:12.092Z,9.20
2022-12-19T12:43:48.539Z,9.73
2022-12-19T12:46:19.036Z,7.67
2022-12-19T12:48:49.287Z,8.40
2022-12-19T12:51:19.640Z,9.57
2022-12-19T12:53:49.300Z,8.93
2022-12-19T12:56:19.175Z,4.73
2022-12-19T12:59:08.818Z,8.83
2022-12-19T13:01:39.251Z,9.40
2022-12-19T13:04:09.041Z,9.23
2022-12-19T13:06:39.865Z,8.23
2022-12-19T13:09:22.063Z,9.50
2022-12-19T13:12:09.192Z,10.13
2022-12-19T13:14:50.561Z,11.37
2022-12-19T13:17:26.501Z,11.57
2022-12-19T13:19:56.477Z,8.27
2022-12-19T13:22:40.859Z,9.50
2022-12-19T13:25:36.676Z,9.60
2022-12-19T13:28:15.977Z,8.40
2022-12-19T13:31:20.977Z,8.13
2022-12-19T13:34:09.247Z,7.80
2022-12-19T13:39:51.353Z,6.40
2022-12-19T13:39:56.405Z,7.80
2022-12-19T13:43:09.611Z,6.07
2022-12-19T13:45:40.770Z,5.87
2022-12-19T13:48:14.620Z,5.83
2022-12-19T13:50:43.694Z,8.47
2022-12-19T13:53:16.692Z,6.50
2022-12-19T13:55:46.509Z,7.00
2022-12-19T13:58:29.443Z,2.63
2022-12-19T14:00:59.819Z,6.33
2022-12-19T14:03:34.463Z,6.37
2022-12-19T14:06:18.222Z,6.83
2022-12-19T14:09:46.296Z,5.90
2022-12-19T14:13:38.357Z,5.60
2022-12-19T14:14:47.723Z,5.90
2022-12-19T14:17:17.314Z,4.40
2022-12-19T14:19:47.738Z,5.77
2022-12-19T14:22:26.064Z,5.83
2022-12-19T14:24:55.742Z,6.90
2022-12-19T14:28:21.385Z,5.63
2022-12-19T14:30:37.224Z,5.70
2022-12-19T14:33:44.122Z,6.00
2022-12-19T14:36:12.307Z,6.03
2022-12-19T14:39:22.086Z,5.67
2022-12-19T14:42:01.367Z,6.17
2022-12-19T14:52:52.390Z,6.00
2022-12-19T14:54:09.147Z,4.70
2022-12-19T14:54:16.335Z,5.87
2022-12-19T14:54:37.572Z,7.87
2022-12-19T14:59:00.626Z,4.67
2022-12-19T15:01:44.534Z,7.33
2022-12-19T15:04:50.767Z,6.57
2022-12-19T15:07:12.351Z,7.13
2022-12-19T15:11:03.131Z,6.23
2022-12-19T15:14:49.150Z,6.70
2022-12-19T15:15:46.214Z,6.30
2022-12-19T15:18:20.999Z,5.53
2022-12-19T15:20:49.387Z,6.67
2022-12-19T15:23:21.980Z,5.87
2022-12-19T15:26:07.593Z,5.10
2022-12-19T15:28:39.287Z,6.07
2022-12-19T15:31:14.277Z,4.40
2022-12-19T15:34:06.778Z,5.33
2022-12-19T15:36:32.551Z,5.83
2022-12-19T15:39:01.452Z,6.23
2022-12-19T15:41:30.268Z,4.23
2022-12-19T15:44:04.068Z,5.73
2022-12-19T15:46:33.588Z,5.57
2022-12-19T15:49:03.418Z,5.70
2022-12-19T15:51:31.976Z,5.73
2022-12-19T15:54:38.313Z,4.73
2022-12-19T15:56:51.878Z,4.73
2022-12-19T15:59:27.502Z,5.60
2022-12-19T16:02:05.713Z,5.63
2022-12-19T16:04:36.145Z,4.67
2022-12-19T16:07:11.200Z,4.13
2022-12-19T16:09:39.629Z,3.80
2022-12-19T16:12:08.175Z,4.87
2022-12-19T16:14:36.752Z,5.33
2022-12-19T16:17:05.290Z,5.10
2022-12-19T16:19:35.115Z,5.03
2022-12-19T16:22:03.615Z,4.97
2022-12-19T16:24:32.106Z,5.50
2022-12-19T16:27:00.968Z,5.57
2022-12-19T16:29:32.723Z,5.73
2022-12-19T16:32:01.751Z,5.30
2022-12-19T16:34:30.271Z,5.07
2022-12-19T16:37:00.053Z,5.40
2022-12-19T16:39:29.223Z,5.83
2022-12-19T16:41:57.617Z,6.73
2022-12-19T16:44:27.012Z,5.40
2022-12-19T16:46:55.480Z,6.93
2022-12-19T16:49:24.215Z,6.60
2022-12-19T16:52:02.414Z,4.93
2022-12-19T16:54:32.651Z,4.67
2022-12-19T16:57:02.980Z,5.70
2022-12-19T16:59:35.988Z,5.73
2022-12-19T17:02:11.768Z,6.10
2022-12-19T17:04:50.426Z,6.40
2022-12-19T17:07:23.424Z,5.47
2022-12-19T17:09:51.828Z,5.53
2022-12-19T17:12:20.268Z,5.17
2022-12-19T17:14:48.682Z,5.57
2022-12-19T17:17:17.450Z,5.53
2022-12-19T17:19:50.203Z,5.60
2022-12-19T17:22:21.455Z,5.07
2022-12-19T17:24:51.317Z,4.20
2022-12-19T17:27:21.006Z,5.80
2022-12-19T17:29:49.392Z,6.00
2022-12-19T17:32:23.533Z,4.40
2022-12-19T17:34:53.919Z,6.13
2022-12-19T17:37:23.006Z,5.40
2022-12-19T17:39:52.820Z,5.50
2022-12-19T17:42:22.736Z,5.43
2022-12-19T17:44:51.159Z,4.07
2022-12-19T17:47:21.334Z,4.07
2022-12-19T17:49:50.336Z,4.27
2022-12-19T17:52:20.098Z,5.30
2022-12-19T17:54:48.740Z,6.77
2022-12-19T17:57:19.501Z,6.43
2022-12-19T17:59:47.895Z,4.23
2022-12-19T18:02:22.387Z,5.70
2022-12-19T18:04:54.097Z,5.07
2022-12-19T18:07:26.707Z,6.77
2022-12-19T18:09:55.239Z,5.73
2022-12-19T18:12:25.085Z,5.83
2022-12-19T18:14:55.628Z,4.80
2022-12-19T18:17:25.245Z,6.87
2022-12-19T18:19:54.117Z,5.37
2022-12-19T18:22:22.517Z,3.83
2022-12-19T18:24:50.873Z,5.33
2022-12-19T18:27:19.268Z,3.80
2022-12-19T18:29:49.125Z,6.37
2022-12-19T18:32:19.225Z,4.43
2022-12-19T18:34:47.710Z,5.33
2022-12-19T18:37:17.196Z,6.17
2022-12-19T18:39:45.606Z,7.40
2022-12-19T18:42:21.515Z,7.87
2022-12-19T18:44:51.412Z,7.07
2022-12-19T18:47:23.064Z,6.13
2022-12-19T18:49:53.061Z,6.77
2022-12-19T18:52:21.410Z,7.40
2022-12-19T18:54:49.758Z,4.37
2022-12-19T18:57:18.121Z,6.93
2022-12-19T18:59:48.545Z,6.40
2022-12-19T19:02:25.894Z,7.20
2022-12-19T19:04:55.743Z,4.73
2022-12-19T19:07:24.081Z,7.27
2022-12-19T19:09:52.477Z,6.50
2022-12-19T19:12:20.900Z,7.07
2022-12-19T19:14:49.297Z,7.23
2022-12-19T19:17:25.128Z,7.13
2022-12-19T19:19:53.550Z,5.70
2022-12-19T19:22:21.905Z,5.67
2022-12-19T19:24:50.607Z,6.03
2022-12-19T19:27:19.114Z,5.73
2022-12-19T19:29:47.579Z,4.30
2022-12-19T19:32:16.256Z,4.47
2022-12-19T19:34:46.215Z,15.17
2022-12-19T19:37:15.473Z,9.23
2022-12-19T19:39:43.843Z,5.90
2022-12-19T19:42:12.318Z,3.60
2022-12-19T19:44:40.698Z,5.27
2022-12-19T19:47:09.067Z,5.33
2022-12-19T19:49:37.505Z,6.43
2022-12-19T19:52:07.362Z,7.13
2022-12-19T19:54:36.404Z,4.10
2022-12-19T19:57:04.825Z,5.87
2022-12-19T19:59:33.231Z,5.63
2022-12-19T20:02:01.769Z,5.50
2022-12-19T20:04:30.327Z,4.73
2022-12-19T20:06:58.786Z,5.73
2022-12-19T20:09:28.772Z,6.33
2022-12-19T20:11:57.197Z,5.37
2022-12-19T20:14:26.606Z,3.83
2022-12-19T20:16:55.068Z,5.63
2022-12-19T20:19:23.493Z,5.70
2022-12-19T20:21:52.173Z,6.23
2022-12-19T20:24:20.622Z,5.40
2022-12-19T20:26:52.690Z,5.13
2022-12-19T20:29:21.453Z,4.57
2022-12-19T20:31:49.901Z,5.67
2022-12-19T20:34:19.998Z,5.50
2022-12-19T20:36:48.467Z,6.63
2022-12-19T20:39:21.959Z,5.00
2022-12-19T20:41:52.540Z,5.80
2022-12-19T20:44:24.384Z,5.27
2022-12-19T20:46:53.148Z,5.50
2022-12-19T20:49:21.592Z,6.07
2022-12-19T20:51:49.993Z,5.37
2022-12-19T20:54:18.426Z,5.50
2022-12-19T20:56:46.867Z,6.33
2022-12-19T20:59:16.584Z,6.60
2022-12-19T21:01:44.989Z,6.00
2022-12-19T21:04:13.511Z,6.90
2022-12-19T21:06:41.949Z,5.97
2022-12-19T21:09:11.296Z,5.90
2022-12-19T21:11:39.824Z,6.33
2022-12-19T21:14:14.274Z,17.27
2022-12-19T21:16:44.321Z,5.60
2022-12-19T21:19:12.831Z,4.00
2022-12-19T21:21:41.447Z,5.80
2022-12-19T21:24:09.869Z,6.27
2022-12-19T21:26:38.292Z,6.20
2022-12-19T21:29:06.540Z,5.93
2022-12-19T21:31:34.918Z,6.57
2022-12-19T21:34:04.799Z,2.63
2022-12-19T21:36:33.565Z,5.00
2022-12-19T21:39:02.930Z,6.00
2022-12-19T21:41:31.584Z,4.90
2022-12-19T21:44:02.313Z,5.90
2022-12-19T21:46:32.992Z,6.50
2022-12-19T21:49:02.546Z,6.70
2022-12-19T21:51:33.330Z,6.27
2022-12-19T21:54:02.413Z,6.17
2022-12-19T21:56:31.327Z,5.57
2022-12-19T21:59:00.768Z,6.20
2022-12-19T22:01:29.790Z,6.00
2022-12-19T22:04:00.060Z,6.23
2022-12-19T22:06:33.925Z,5.60
2022-12-19T22:09:02.821Z,6.77
2022-12-19T22:11:34.720Z,5.90
2022-12-19T22:14:06.641Z,5.80
2022-12-19T22:16:35.461Z,5.07
2022-12-19T22:19:07.404Z,6.30
2022-12-19T22:21:37.141Z,6.20
2022-12-19T22:24:05.953Z,6.10
2022-12-19T22:26:35.498Z,5.63
2022-12-19T22:29:07.542Z,6.10
2022-12-19T22:31:36.235Z,5.40
2022-12-19T22:34:05.873Z,6.07
2022-12-19T22:36:35.415Z,5.90
2022-12-19T22:39:07.381Z,5.70
2022-12-19T22:41:36.574Z,5.93
2022-12-19T22:44:05.410Z,5.27
2022-12-19T22:46:34.601Z,4.73
2022-12-19T22:49:04.140Z,4.77
2022-12-19T22:51:34.037Z,4.40
2022-12-19T22:54:02.525Z,4.80
2022-12-19T22:56:32.816Z,5.77
2022-12-19T22:59:01.891Z,5.63
2022-12-19T23:01:31.611Z,5.60
2022-12-19T23:04:01.280Z,5.13
2022-12-19T23:06:30.935Z,5.30
2022-12-19T23:08:59.382Z,5.37
2022-12-19T23:11:29.954Z,4.27
2022-12-19T23:13:59.751Z,5.00
2022-12-19T23:16:28.106Z,5.43
2022-12-19T23:18:56.531Z,5.17
2022-12-19T23:21:26.176Z,5.10
2022-12-19T23:23:55.511Z,5.60
2022-12-19T23:26:25.366Z,5.67
2022-12-19T23:28:54.705Z,5.90
2022-12-19T23:31:24.714Z,4.20
2022-12-19T23:33:53.507Z,4.90
2022-12-19T23:36:45.300Z,5.33
2022-12-19T23:39:11.830Z,5.13
2022-12-19T23:41:40.255Z,4.70
2022-12-19T23:44:09.275Z,3.73
2022-12-19T23:46:40.034Z,4.90
2022-12-19T23:49:08.395Z,4.70
2022-12-19T23:51:36.693Z,5.03
2022-12-19T23:54:05.257Z,5.63
2022-12-19T23:56:33.974Z,5.13
2022-12-19T23:59:02.482Z,4.53
